Time;durP1;ratioP1;P1;durP2;ratioP2;P2;SDS_P1;SDS_P2;PMS_P1;PMS_P2;Temp;Humidity;BMP_temperature;BMP_pressure;BME280_temperature;BME280_humidity;BME280_pressure;Samples;Min_cycle;Max_cycle;Signal;HPM_P1;HPM_P2
2024/01/29 00:00:49;;;;;;;123.80;44.00;;;;;;;;;;6265962;28;20041;-72
2024/01/29 00:04:10;;;;;;;116.45;41.10;;;;;;;;;;6255465;28;20048;-72
2024/01/29 00:07:11;;;;;;;106.40;38.70;;;;;;;;;;6257542;28;20632;-72
2024/01/29 00:10:12;;;;;;;105.47;39.38;;;;;;;;;;6259780;28;20472;-72
2024/01/29 00:13:13;;;;;;;102.22;39.00;;;;;;;;;;6260067;28;20052;-73
2024/01/29 00:16:14;;;;;;;100.60;37.28;;;;;;;;;;6260274;28;20049;-72
2024/01/29 00:19:15;;;;;;;112.78;37.55;;;;;;;;;;6254380;28;20048;-72
2024/01/29 00:22:15;;;;;;;108.53;37.22;;;;;;;;;;6254614;28;20050;-72
2024/01/29 00:25:16;;;;;;;114.72;41.55;;;;;;;;;;6260605;28;20143;-73
2024/01/29 00:28:17;;;;;;;108.28;39.75;;;;;;;;;;6259096;28;20045;-72
2024/01/29 00:31:18;;;;;;;110.30;42.33;;;;;;;;;;6257131;28;20403;-72
2024/01/29 00:34:19;;;;;;;103.20;40.72;;;;;;;;;;6264088;28;20057;-71
2024/01/29 00:37:22;;;;;;;112.75;43.67;;;;;;;;;;6247357;28;20056;-71
2024/01/29 00:40:25;;;;;;;129.98;47.13;;;;;;;;;;6255835;28;20136;-72
2024/01/29 00:43:25;;;;;;;117.82;44.13;;;;;;;;;;6257638;28;20045;-72
2024/01/29 00:46:27;;;;;;;131.48;47.63;;;;;;;;;;6259689;28;20393;-71
2024/01/29 00:49:31;;;;;;;129.30;49.35;;;;;;;;;;6260745;28;20045;-71
2024/01/29 00:52:33;;;;;;;133.07;48.47;;;;;;;;;;6256663;28;20053;-71
2024/01/29 00:55:34;;;;;;;125.78;48.20;;;;;;;;;;6259696;28;20050;-71
2024/01/29 00:58:35;;;;;;;129.23;48.28;;;;;;;;;;6258474;28;20044;-71
2024/01/29 01:01:36;;;;;;;133.60;45.20;;;;;;;;;;6256050;28;20071;-72
2024/01/29 01:04:38;;;;;;;115.28;41.83;;;;;;;;;;6231589;28;20076;-72
2024/01/29 01:07:39;;;;;;;117.70;38.67;;;;;;;;;;6233024;28;20041;-72
2024/01/29 01:10:40;;;;;;;112.75;40.15;;;;;;;;;;6231785;28;20394;-72
2024/01/29 01:13:40;;;;;;;116.53;40.85;;;;;;;;;;6233590;28;20099;-71
2024/01/29 01:16:41;;;;;;;111.30;40.03;;;;;;;;;;6233654;28;20584;-72
2024/01/29 01:19:42;;;;;;;119.00;39.80;;;;;;;;;;6230761;28;20103;-71
2024/01/29 01:22:43;;;;;;;119.13;41.35;;;;;;;;;;6233112;28;20379;-72
2024/01/29 01:25:44;;;;;;;123.15;45.25;;;;;;;;;;6237052;28;20549;-72
2024/01/29 01:28:44;;;;;;;111.30;42.65;;;;;;;;;;6231269;28;20042;-71
2024/01/29 01:31:45;;;;;;;116.35;42.08;;;;;;;;;;6231561;28;20084;-72
2024/01/29 01:34:46;;;;;;;122.95;44.17;;;;;;;;;;6234055;28;20045;-72
2024/01/29 01:37:47;;;;;;;108.30;42.78;;;;;;;;;;6233979;28;20439;-72
2024/01/29 01:40:47;;;;;;;122.30;44.92;;;;;;;;;;6231402;28;20053;-71
2024/01/29 01:43:48;;;;;;;122.78;43.20;;;;;;;;;;6233629;28;20184;-72
2024/01/29 01:46:49;;;;;;;113.10;42.53;;;;;;;;;;6232064;28;20042;-71
2024/01/29 01:49:50;;;;;;;103.50;38.75;;;;;;;;;;6234753;28;20120;-72
2024/01/29 01:52:51;;;;;;;100.78;38.10;;;;;;;;;;6229228;28;20506;-71
2024/01/29 01:55:52;;;;;;;103.25;35.90;;;;;;;;;;6232409;28;20077;-70
2024/01/29 01:58:54;;;;;;;114.28;40.45;;;;;;;;;;6234408;28;20050;-72
2024/01/29 02:01:55;;;;;;;105.43;39.30;;;;;;;;;;6231025;28;20050;-71
2024/01/29 02:04:57;;;;;;;112.20;41.38;;;;;;;;;;6252394;28;20813;-71
2024/01/29 02:07:57;;;;;;;116.13;42.60;;;;;;;;;;6258062;28;20075;-72
2024/01/29 02:11:00;;;;;;;100.15;38.25;;;;;;;;;;6255475;28;20057;-71
2024/01/29 02:14:01;;;;;;;117.85;41.25;;;;;;;;;;6236384;28;20045;-71
2024/01/29 02:17:01;;;;;;;120.68;42.70;;;;;;;;;;6261310;28;20412;-71
2024/01/29 02:20:04;;;;;;;110.90;41.30;;;;;;;;;;6261933;28;20182;-71
2024/01/29 02:23:04;;;;;;;118.53;40.92;;;;;;;;;;6247934;28;20179;-72
2024/01/29 02:26:05;;;;;;;113.68;42.75;;;;;;;;;;6257724;28;20567;-71
2024/01/29 02:29:06;;;;;;;115.00;43.30;;;;;;;;;;6263103;28;20086;-71
2024/01/29 02:32:07;;;;;;;108.90;43.22;;;;;;;;;;6262443;28;20152;-72
2024/01/29 02:35:07;;;;;;;117.53;41.95;;;;;;;;;;6262312;28;20431;-72
2024/01/29 02:38:08;;;;;;;110.05;42.00;;;;;;;;;;6263892;28;20064;-72
2024/01/29 02:41:09;;;;;;;118.53;43.13;;;;;;;;;;6262321;28;20048;-72
2024/01/29 02:44:10;;;;;;;106.65;43.28;;;;;;;;;;6262749;28;20045;-71
2024/01/29 02:47:10;;;;;;;117.10;42.10;;;;;;;;;;6260779;28;20571;-71
2024/01/29 02:50:11;;;;;;;118.32;45.75;;;;;;;;;;6263130;28;20045;-70
2024/01/29 02:53:12;;;;;;;131.43;48.28;;;;;;;;;;6262748;28;20041;-71
2024/01/29 02:56:12;;;;;;;121.60;45.78;;;;;;;;;;6263339;28;20458;-71
2024/01/29 02:59:13;;;;;;;121.68;44.35;;;;;;;;;;6262898;28;20048;-71
2024/01/29 03:02:14;;;;;;;123.78;45.97;;;;;;;;;;6259879;28;20822;-71
2024/01/29 03:05:14;;;;;;;125.60;45.90;;;;;;;;;;6262860;28;20049;-71
2024/01/29 03:08:15;;;;;;;130.52;47.83;;;;;;;;;;6264137;28;20041;-72
2024/01/29 03:11:16;;;;;;;130.63;47.55;;;;;;;;;;6263277;28;20060;-71
2024/01/29 03:14:17;;;;;;;120.70;45.17;;;;;;;;;;6262714;28;20079;-71
2024/01/29 03:17:17;;;;;;;111.85;42.65;;;;;;;;;;6263025;28;20045;-72
2024/01/29 03:20:18;;;;;;;118.47;41.35;;;;;;;;;;6262753;28;20053;-72
2024/01/29 03:23:18;;;;;;;110.90;41.00;;;;;;;;;;6263523;28;20044;-71
2024/01/29 03:26:19;;;;;;;111.45;42.17;;;;;;;;;;6261975;28;20056;-71
2024/01/29 03:29:20;;;;;;;105.45;40.35;;;;;;;;;;6262379;28;20056;-71
2024/01/29 03:32:20;;;;;;;109.80;40.20;;;;;;;;;;6260237;28;20479;-73
2024/01/29 03:35:21;;;;;;;101.28;36.40;;;;;;;;;;6262425;28;20045;-72
2024/01/29 03:38:22;;;;;;;94.50;35.40;;;;;;;;;;6265947;28;20056;-71
2024/01/29 03:41:23;;;;;;;83.97;30.20;;;;;;;;;;6266863;28;20407;-72
2024/01/29 03:44:23;;;;;;;83.20;32.17;;;;;;;;;;6267622;28;20438;-71
2024/01/29 03:47:24;;;;;;;99.28;38.15;;;;;;;;;;6268356;28;20044;-71
2024/01/29 03:50:25;;;;;;;91.43;34.63;;;;;;;;;;6266855;28;20049;-72
2024/01/29 03:53:25;;;;;;;98.28;36.28;;;;;;;;;;6266507;28;20082;-71
2024/01/29 03:56:26;;;;;;;92.03;33.00;;;;;;;;;;6267210;28;20041;-72
2024/01/29 03:59:26;;;;;;;85.13;33.30;;;;;;;;;;6267467;28;20037;-71
2024/01/29 04:02:27;;;;;;;98.05;35.22;;;;;;;;;;6265525;28;20053;-71
2024/01/29 04:05:28;;;;;;;94.78;34.33;;;;;;;;;;6266410;28;20041;-71
2024/01/29 04:08:29;;;;;;;92.70;34.67;;;;;;;;;;6268054;28;20040;-71
2024/01/29 04:11:29;;;;;;;101.07;36.75;;;;;;;;;;6266044;28;20049;-71
2024/01/29 04:14:30;;;;;;;90.78;34.28;;;;;;;;;;6266787;28;20044;-71
2024/01/29 04:17:31;;;;;;;80.80;31.20;;;;;;;;;;6266935;28;20488;-71
2024/01/29 04:20:31;;;;;;;87.43;31.55;;;;;;;;;;6265796;28;20461;-71
2024/01/29 04:23:34;;;;;;;97.45;34.10;;;;;;;;;;6266751;28;20052;-71
2024/01/29 04:26:36;;;;;;;87.30;31.35;;;;;;;;;;6265864;28;20124;-71
2024/01/29 04:29:38;;;;;;;90.97;33.38;;;;;;;;;;6265542;28;20162;-71
2024/01/29 04:32:39;;;;;;;93.43;34.42;;;;;;;;;;6265204;28;20045;-71
2024/01/29 04:35:40;;;;;;;93.60;35.80;;;;;;;;;;6266676;28;20800;-71
2024/01/29 04:38:43;;;;;;;96.05;36.97;;;;;;;;;;6266934;28;20064;-71
2024/01/29 04:41:43;;;;;;;97.40;35.10;;;;;;;;;;6262859;28;20551;-71
2024/01/29 04:44:44;;;;;;;111.50;38.80;;;;;;;;;;6265479;28;20068;-71
2024/01/29 04:47:45;;;;;;;102.85;38.15;;;;;;;;;;6264277;28;20049;-71
2024/01/29 04:50:46;;;;;;;103.75;37.90;;;;;;;;;;6261380;28;20159;-71
2024/01/29 04:53:46;;;;;;;98.93;37.78;;;;;;;;;;6264253;28;20426;-72
2024/01/29 04:56:47;;;;;;;102.07;36.78;;;;;;;;;;6263944;28;20053;-71
2024/01/29 04:59:48;;;;;;;89.63;34.92;;;;;;;;;;6264454;28;20053;-71
2024/01/29 05:02:49;;;;;;;94.93;36.63;;;;;;;;;;6260066;28;20131;-70
2024/01/29 05:05:49;;;;;;;96.22;36.00;;;;;;;;;;6264856;28;20441;-71
2024/01/29 05:08:50;;;;;;;92.95;33.47;;;;;;;;;;6265424;28;20487;-71
2024/01/29 05:11:51;;;;;;;87.00;31.60;;;;;;;;;;6264091;28;20464;-71
2024/01/29 05:14:52;;;;;;;91.80;32.78;;;;;;;;;;6265688;28;20052;-71
2024/01/29 05:17:52;;;;;;;85.85;31.67;;;;;;;;;;6260429;28;20049;-70
2024/01/29 05:20:53;;;;;;;87.03;33.55;;;;;;;;;;6262301;28;20139;-70
2024/01/29 05:23:54;;;;;;;88.72;32.10;;;;;;;;;;6267167;28;20106;-71
2024/01/29 05:26:55;;;;;;;91.25;33.42;;;;;;;;;;6264844;28;20708;-70
2024/01/29 05:29:55;;;;;;;91.30;34.17;;;;;;;;;;6265419;28;20423;-70
2024/01/29 05:32:56;;;;;;;78.82;32.15;;;;;;;;;;6264107;28;20099;-71
2024/01/29 05:35:57;;;;;;;81.00;30.83;;;;;;;;;;6264876;28;20049;-71
2024/01/29 05:38:58;;;;;;;86.43;32.25;;;;;;;;;;6265376;28;20095;-71
2024/01/29 05:41:58;;;;;;;86.82;32.20;;;;;;;;;;6261927;28;20518;-71
2024/01/29 05:44:59;;;;;;;89.88;35.67;;;;;;;;;;6263342;28;20522;-71
2024/01/29 05:48:03;;;;;;;93.38;35.15;;;;;;;;;;6264050;28;20396;-70
2024/01/29 05:51:04;;;;;;;96.10;36.08;;;;;;;;;;6264382;28;20103;-71
2024/01/29 05:54:05;;;;;;;98.65;36.25;;;;;;;;;;6265160;28;20053;-69
2024/01/29 05:57:10;;;;;;;100.85;36.30;;;;;;;;;;6264536;28;20049;-70
2024/01/29 06:00:11;;;;;;;104.38;38.35;;;;;;;;;;6262666;28;20057;-71
2024/01/29 06:03:12;;;;;;;95.72;34.67;;;;;;;;;;6255085;28;20048;-69
2024/01/29 06:06:13;;;;;;;85.28;33.45;;;;;;;;;;6258697;28;20132;-70
2024/01/29 06:09:15;;;;;;;105.10;37.80;;;;;;;;;;6265092;28;20117;-72
2024/01/29 06:12:15;;;;;;;107.47;37.83;;;;;;;;;;6261046;28;20068;-72
2024/01/29 06:15:16;;;;;;;133.05;45.30;;;;;;;;;;6264024;28;20325;-70
2024/01/29 06:18:17;;;;;;;108.35;39.70;;;;;;;;;;6264614;28;20439;-71
2024/01/29 06:21:17;;;;;;;102.10;38.65;;;;;;;;;;6261005;28;20132;-72
2024/01/29 06:24:18;;;;;;;106.43;39.53;;;;;;;;;;6262243;28;20752;-72
2024/01/29 06:27:19;;;;;;;98.35;38.13;;;;;;;;;;6261617;28;20034;-72
2024/01/29 06:30:19;;;;;;;102.95;40.58;;;;;;;;;;6259259;28;20045;-71
2024/01/29 06:33:20;;;;;;;113.97;42.17;;;;;;;;;;6260749;28;20045;-72
2024/01/29 06:36:22;;;;;;;107.07;39.97;;;;;;;;;;6260818;28;20099;-71
2024/01/29 06:39:24;;;;;;;120.70;44.05;;;;;;;;;;6256481;28;20064;-71
2024/01/29 06:42:24;;;;;;;115.80;43.05;;;;;;;;;;6258819;28;20053;-72
2024/01/29 06:45:25;;;;;;;100.63;36.97;;;;;;;;;;6262882;28;20043;-72
2024/01/29 06:48:26;;;;;;;95.90;36.33;;;;;;;;;;6263249;28;20451;-72
2024/01/29 06:51:27;;;;;;;107.78;37.10;;;;;;;;;;6262882;28;20044;-71
2024/01/29 06:54:27;;;;;;;107.35;42.15;;;;;;;;;;6263795;28;20041;-71
2024/01/29 06:57:28;;;;;;;117.60;41.67;;;;;;;;;;6263920;28;20136;-71
2024/01/29 07:00:29;;;;;;;116.22;41.05;;;;;;;;;;6263084;28;20468;-71
2024/01/29 07:03:30;;;;;;;117.82;43.13;;;;;;;;;;6262894;28;20045;-71
2024/01/29 07:06:31;;;;;;;110.93;44.90;;;;;;;;;;6263761;28;20048;-71
2024/01/29 07:09:32;;;;;;;111.45;42.72;;;;;;;;;;6263962;28;20052;-72
2024/01/29 07:12:32;;;;;;;113.25;41.67;;;;;;;;;;6263880;28;20056;-72
2024/01/29 07:15:33;;;;;;;103.03;38.50;;;;;;;;;;6268726;28;20507;-71
2024/01/29 07:18:36;;;;;;;104.18;37.55;;;;;;;;;;6268596;28;20434;-72
2024/01/29 07:21:36;;;;;;;102.93;38.05;;;;;;;;;;6266453;28;20056;-71
2024/01/29 07:24:37;;;;;;;114.50;42.42;;;;;;;;;;6262963;28;20053;-70
2024/01/29 07:27:38;;;;;;;115.30;44.70;;;;;;;;;;6268335;28;20056;-71
2024/01/29 07:30:39;;;;;;;108.68;40.15;;;;;;;;;;6265969;28;20057;-71
2024/01/29 07:33:40;;;;;;;115.65;42.55;;;;;;;;;;6266340;28;20060;-71
2024/01/29 07:36:40;;;;;;;124.20;44.05;;;;;;;;;;6269437;28;20060;-71
2024/01/29 07:39:41;;;;;;;128.90;46.65;;;;;;;;;;6267627;28;20445;-71
2024/01/29 07:42:42;;;;;;;129.57;47.38;;;;;;;;;;6265753;28;20605;-70
2024/01/29 07:45:44;;;;;;;123.65;47.28;;;;;;;;;;6267942;28;20041;-71
2024/01/29 07:48:44;;;;;;;125.40;49.53;;;;;;;;;;6265725;28;20040;-72
2024/01/29 07:51:45;;;;;;;120.82;47.65;;;;;;;;;;6265944;28;20049;-71
2024/01/29 07:54:46;;;;;;;126.45;45.17;;;;;;;;;;6268279;28;20110;-71
2024/01/29 07:57:47;;;;;;;126.60;48.13;;;;;;;;;;6268491;28;20488;-71
2024/01/29 08:00:49;;;;;;;134.25;49.85;;;;;;;;;;6264414;28;20053;-71
2024/01/29 08:03:50;;;;;;;127.88;47.97;;;;;;;;;;6265762;28;20471;-71
2024/01/29 08:06:50;;;;;;;140.98;51.38;;;;;;;;;;6266215;28;20052;-72
2024/01/29 08:09:51;;;;;;;150.00;53.22;;;;;;;;;;6265563;28;20069;-71
2024/01/29 08:12:52;;;;;;;142.23;53.08;;;;;;;;;;6265062;28;20044;-71
2024/01/29 08:15:54;;;;;;;128.00;48.15;;;;;;;;;;6267705;28;20049;-71
2024/01/29 08:18:56;;;;;;;129.38;50.83;;;;;;;;;;6264860;28;20040;-71
2024/01/29 08:21:57;;;;;;;134.32;49.10;;;;;;;;;;6262577;28;20045;-71
2024/01/29 08:24:58;;;;;;;132.73;48.45;;;;;;;;;;6264955;28;20454;-70
2024/01/29 08:27:59;;;;;;;134.15;47.45;;;;;;;;;;6266789;28;20057;-71
2024/01/29 08:31:00;;;;;;;126.07;48.22;;;;;;;;;;6265878;28;20045;-71
2024/01/29 08:34:04;;;;;;;124.00;46.23;;;;;;;;;;6265547;28;20045;-71
2024/01/29 08:37:05;;;;;;;116.35;45.72;;;;;;;;;;6265189;28;21088;-71
2024/01/29 08:40:06;;;;;;;119.70;41.75;;;;;;;;;;6266797;28;20048;-71
2024/01/29 08:43:07;;;;;;;99.43;37.85;;;;;;;;;;6265304;28;20090;-71
2024/01/29 08:46:09;;;;;;;93.00;35.35;;;;;;;;;;6265363;28;20139;-71
2024/01/29 08:49:09;;;;;;;97.72;37.13;;;;;;;;;;6265589;28;20064;-71
2024/01/29 08:52:10;;;;;;;113.78;41.85;;;;;;;;;;6263529;28;20483;-71
2024/01/29 08:55:11;;;;;;;117.35;44.22;;;;;;;;;;6266438;28;20828;-71
2024/01/29 08:58:12;;;;;;;121.20;44.63;;;;;;;;;;6266129;28;20397;-71
2024/01/29 09:01:12;;;;;;;135.45;46.17;;;;;;;;;;6264995;28;20045;-72
2024/01/29 09:04:13;;;;;;;118.65;45.03;;;;;;;;;;6265168;28;20151;-71
2024/01/29 09:07:17;;;;;;;115.85;44.60;;;;;;;;;;6265689;28;20048;-71
2024/01/29 09:10:18;;;;;;;109.53;42.50;;;;;;;;;;6265368;28;20053;-72
2024/01/29 09:13:18;;;;;;;122.60;46.33;;;;;;;;;;6263209;28;20126;-72
2024/01/29 09:16:19;;;;;;;113.32;40.75;;;;;;;;;;6265650;28;20049;-72
2024/01/29 09:19:21;;;;;;;112.32;40.10;;;;;;;;;;6265057;28;20114;-72
2024/01/29 09:22:22;;;;;;;;;;;;;;;;;;6264218;28;20601;-73
2024/01/29 09:25:23;;;;;;;100.00;37.55;;;;;;;;;;6265389;28;20408;-72
2024/01/29 09:28:23;;;;;;;94.53;36.17;;;;;;;;;;6264160;28;20045;-72
2024/01/29 09:31:24;;;;;;;94.40;35.67;;;;;;;;;;6263177;28;20138;-72
2024/01/29 09:34:27;;;;;;;95.57;35.90;;;;;;;;;;6261846;28;20049;-72
2024/01/29 09:37:27;;;;;;;;;;;;;;;;;;6266144;28;20055;-72
2024/01/29 09:40:28;;;;;;;96.93;36.10;;;;;;;;;;6263454;28;19925;-72
2024/01/29 09:43:32;;;;;;;97.68;38.13;;;;;;;;;;6263622;28;20404;-72
2024/01/29 09:46:37;;;;;;;84.07;35.22;;;;;;;;;;6264927;28;20107;-73
2024/01/29 09:49:38;;;;;;;95.35;34.30;;;;;;;;;;6266865;28;20052;-73
2024/01/29 09:52:39;;;;;;;95.47;36.33;;;;;;;;;;6261536;28;20471;-72
2024/01/29 09:55:40;;;;;;;88.20;33.42;;;;;;;;;;6265828;28;20056;-72
2024/01/29 09:58:41;;;;;;;82.55;33.65;;;;;;;;;;6262505;28;20049;-72
2024/01/29 10:01:42;;;;;;;92.68;34.78;;;;;;;;;;6265125;28;20122;-73
2024/01/29 10:04:43;;;;;;;75.97;30.52;;;;;;;;;;6262094;28;20053;-72
2024/01/29 10:07:44;;;;;;;81.93;31.23;;;;;;;;;;6264462;28;20067;-73
2024/01/29 10:10:48;;;;;;;77.90;32.47;;;;;;;;;;6265046;28;20479;-72
2024/01/29 10:13:57;;;;;;;81.25;31.35;;;;;;;;;;6260406;28;20159;-73
2024/01/29 10:16:58;;;;;;;74.18;30.05;;;;;;;;;;6264254;28;20056;-74
2024/01/29 10:19:58;;;;;;;83.60;30.88;;;;;;;;;;6262721;28;20045;-73
2024/01/29 10:23:01;;;;;;;76.32;29.98;;;;;;;;;;6261525;28;20136;-74
2024/01/29 10:26:02;;;;;;;84.47;32.83;;;;;;;;;;6263324;28;20061;-73
2024/01/29 10:29:05;;;;;;;73.78;29.80;;;;;;;;;;6263473;28;20510;-74
2024/01/29 10:32:06;;;;;;;92.57;36.85;;;;;;;;;;6261284;28;20411;-74
2024/01/29 10:35:07;;;;;;;93.88;36.03;;;;;;;;;;6263328;28;20045;-71
2024/01/29 10:38:12;;;;;;;93.60;35.25;;;;;;;;;;6263387;28;20044;-73
2024/01/29 10:41:17;;;;;;;92.78;35.67;;;;;;;;;;6262248;28;20418;-73
2024/01/29 10:44:20;;;;;;;100.38;36.70;;;;;;;;;;6262383;28;20041;-73
2024/01/29 10:47:28;;;;;;;91.18;33.95;;;;;;;;;;6266710;28;20052;-74
2024/01/29 10:50:29;;;;;;;96.45;35.22;;;;;;;;;;6269397;28;20131;-74
2024/01/29 10:53:30;;;;;;;83.68;34.10;;;;;;;;;;6268546;28;20545;-73
2024/01/29 10:56:31;;;;;;;94.20;33.47;;;;;;;;;;6268414;28;20132;-73
2024/01/29 10:59:33;;;;;;;86.45;34.08;;;;;;;;;;6268869;28;20052;-72
2024/01/29 11:02:34;;;;;;;86.30;33.33;;;;;;;;;;6265982;28;20376;-75
2024/01/29 11:05:37;;;;;;;79.00;33.58;;;;;;;;;;6267817;28;20049;-73
2024/01/29 11:08:41;;;;;;;86.75;33.42;;;;;;;;;;6269177;28;20156;-72
2024/01/29 11:11:46;;;;;;;89.60;33.13;;;;;;;;;;6269107;28;20045;-73
2024/01/29 11:14:58;;;;;;;77.47;30.65;;;;;;;;;;6266137;28;20053;-73
2024/01/29 11:17:59;;;;;;;87.15;33.80;;;;;;;;;;6267901;28;20049;-74
2024/01/29 11:21:00;;;;;;;88.13;35.27;;;;;;;;;;6268498;28;20059;-73
2024/01/29 11:24:02;;;;;;;92.20;35.50;;;;;;;;;;6268516;28;20144;-73
2024/01/29 11:27:07;;;;;;;87.65;34.65;;;;;;;;;;6265870;28;20090;-75
2024/01/29 11:30:12;;;;;;;79.40;32.10;;;;;;;;;;6268136;28;20060;-74
2024/01/29 11:33:14;;;;;;;83.25;30.48;;;;;;;;;;6266473;28;20041;-74
2024/01/29 11:36:16;;;;;;;74.40;29.65;;;;;;;;;;6265876;28;20037;-74
2024/01/29 11:39:17;;;;;;;69.72;26.60;;;;;;;;;;6267791;28;20049;-73
2024/01/29 11:42:19;;;;;;;73.93;28.05;;;;;;;;;;6266709;28;20486;-73
2024/01/29 11:45:20;;;;;;;72.28;27.42;;;;;;;;;;6266505;28;20052;-75
2024/01/29 11:48:25;;;;;;;69.00;26.92;;;;;;;;;;6267658;28;20057;-74
2024/01/29 11:51:29;;;;;;;65.60;25.65;;;;;;;;;;6265971;28;20045;-77
2024/01/29 11:54:31;;;;;;;73.28;28.77;;;;;;;;;;6249805;28;20056;-76
2024/01/29 11:57:32;;;;;;;59.40;24.93;;;;;;;;;;6262668;28;20045;-72
2024/01/29 12:00:33;;;;;;;65.13;26.03;;;;;;;;;;6266674;28;20041;-73
2024/01/29 12:03:38;;;;;;;64.43;26.00;;;;;;;;;;6267480;28;20114;-74
2024/01/29 12:06:39;;;;;;;65.63;25.45;;;;;;;;;;6253572;28;20059;-76
2024/01/29 12:09:39;;;;;;;62.38;23.73;;;;;;;;;;6261091;28;21373;-74
2024/01/29 12:12:40;;;;;;;65.88;25.83;;;;;;;;;;6263007;28;20059;-75
2024/01/29 12:15:41;;;;;;;67.97;26.80;;;;;;;;;;6256983;28;20397;-73
2024/01/29 12:18:42;;;;;;;87.90;32.90;;;;;;;;;;6260260;28;20387;-75
2024/01/29 12:21:43;;;;;;;89.80;33.55;;;;;;;;;;6260707;28;20096;-71
2024/01/29 12:24:45;;;;;;;79.07;30.88;;;;;;;;;;6259439;28;20042;-72
2024/01/29 12:27:45;;;;;;;73.25;29.75;;;;;;;;;;6255828;28;20049;-71
2024/01/29 12:30:55;;;;;;;78.45;31.65;;;;;;;;;;6266390;28;20115;-75
2024/01/29 12:33:56;;;;;;;75.45;31.20;;;;;;;;;;6267592;28;21023;-74
2024/01/29 12:36:57;;;;;;;74.63;29.88;;;;;;;;;;6263898;28;20103;-75
2024/01/29 12:39:58;;;;;;;76.47;28.77;;;;;;;;;;6264209;28;20060;-70
2024/01/29 12:43:01;;;;;;;67.82;27.98;;;;;;;;;;6241244;28;20088;-73
2024/01/29 12:46:13;;;;;;;72.00;28.15;;;;;;;;;;6242251;28;20057;-73
2024/01/29 12:49:14;;;;;;;78.65;27.83;;;;;;;;;;6244598;28;20769;-70
2024/01/29 12:52:15;;;;;;;65.15;27.58;;;;;;;;;;6220761;28;20044;-70
2024/01/29 12:55:18;;;;;;;72.88;29.33;;;;;;;;;;6243375;28;20091;-69
2024/01/29 12:58:18;;;;;;;;;;;;;;;;;;6242080;28;20052;-71
2024/01/29 13:01:19;;;;;;;70.03;26.15;;;;;;;;;;6238005;28;19928;-70
2024/01/29 13:04:20;;;;;;;73.75;27.35;;;;;;;;;;6243958;28;20508;-70
2024/01/29 13:07:21;;;;;;;60.60;25.33;;;;;;;;;;6245639;28;21310;-70
2024/01/29 13:10:25;;;;;;;63.42;26.42;;;;;;;;;;6240915;28;20053;-71
2024/01/29 13:13:26;;;;;;;72.68;28.42;;;;;;;;;;6242244;28;20484;-70
2024/01/29 13:16:27;;;;;;;70.40;28.30;;;;;;;;;;6240574;28;20053;-70
2024/01/29 13:19:27;;;;;;;71.43;27.80;;;;;;;;;;6241056;28;20605;-70
2024/01/29 13:22:28;;;;;;;72.00;30.63;;;;;;;;;;6242361;28;20057;-71
2024/01/29 13:25:29;;;;;;;77.00;31.55;;;;;;;;;;6240063;28;20079;-70
2024/01/29 13:28:29;;;;;;;69.38;29.45;;;;;;;;;;6241197;28;20049;-70
2024/01/29 13:31:30;;;;;;;76.60;30.92;;;;;;;;;;6240890;28;20041;-70
2024/01/29 13:34:31;;;;;;;74.60;29.17;;;;;;;;;;6243750;28;20419;-70
2024/01/29 13:37:32;;;;;;;74.50;29.55;;;;;;;;;;6240004;28;20064;-71
2024/01/29 13:40:32;;;;;;;78.63;30.67;;;;;;;;;;6242480;28;20103;-70
2024/01/29 13:43:33;;;;;;;77.72;30.60;;;;;;;;;;6235435;28;20644;-71
2024/01/29 13:46:34;;;;;;;81.63;30.70;;;;;;;;;;6241440;28;20053;-70
2024/01/29 13:49:35;;;;;;;80.15;31.17;;;;;;;;;;6245195;28;20049;-69
2024/01/29 13:52:35;;;;;;;86.10;31.48;;;;;;;;;;6244386;28;20360;-69
2024/01/29 13:55:36;;;;;;;74.35;30.05;;;;;;;;;;6244427;28;20045;-70
2024/01/29 13:58:37;;;;;;;77.60;32.65;;;;;;;;;;6243966;28;20067;-70
2024/01/29 14:01:38;;;;;;;71.90;29.27;;;;;;;;;;6243827;28;20522;-71
2024/01/29 14:04:39;;;;;;;78.22;31.52;;;;;;;;;;6237682;28;20584;-73
2024/01/29 14:07:39;;;;;;;71.53;28.13;;;;;;;;;;6239741;28;20045;-73
2024/01/29 14:10:40;;;;;;;76.93;31.17;;;;;;;;;;6240387;28;20484;-70
2024/01/29 14:13:42;;;;;;;78.03;30.80;;;;;;;;;;6240882;28;20055;-74
2024/01/29 14:16:42;;;;;;;74.80;31.90;;;;;;;;;;6243523;28;20492;-73
2024/01/29 14:19:43;;;;;;;76.55;30.92;;;;;;;;;;6241759;28;20079;-73
2024/01/29 14:22:43;;;;;;;83.18;33.05;;;;;;;;;;6240892;28;20099;-72
2024/01/29 14:25:44;;;;;;;75.32;32.70;;;;;;;;;;6240154;28;20409;-72
2024/01/29 14:28:45;;;;;;;79.75;32.20;;;;;;;;;;6240176;28;20419;-72
2024/01/29 14:31:46;;;;;;;75.78;32.13;;;;;;;;;;6242736;28;20496;-72
2024/01/29 14:34:46;;;;;;;75.28;31.25;;;;;;;;;;6242023;28;20052;-73
2024/01/29 14:37:47;;;;;;;87.43;34.17;;;;;;;;;;6238986;28;20041;-73
2024/01/29 14:40:48;;;;;;;82.07;31.80;;;;;;;;;;6239282;28;20581;-73
2024/01/29 14:43:48;;;;;;;75.55;30.27;;;;;;;;;;6237106;28;20057;-71
2024/01/29 14:46:49;;;;;;;74.47;30.50;;;;;;;;;;6238992;28;20103;-74
2024/01/29 14:49:50;;;;;;;78.60;31.23;;;;;;;;;;6237925;28;20057;-74
2024/01/29 14:52:53;;;;;;;77.80;34.80;;;;;;;;;;6239853;28;20053;-72
2024/01/29 14:55:54;;;;;;;83.88;37.78;;;;;;;;;;6243457;28;20045;-72
2024/01/29 14:58:55;;;;;;;75.80;30.98;;;;;;;;;;6241495;28;20072;-72
2024/01/29 15:01:57;;;;;;;74.50;30.35;;;;;;;;;;6239349;28;21449;-74
2024/01/29 15:04:57;;;;;;;81.00;30.50;;;;;;;;;;6236771;28;20061;-72
2024/01/29 15:07:58;;;;;;;92.05;34.10;;;;;;;;;;6238716;28;20422;-73
2024/01/29 15:11:00;;;;;;;82.93;32.28;;;;;;;;;;6217947;28;20060;-73
2024/01/29 15:14:01;;;;;;;88.22;31.83;;;;;;;;;;6241908;28;20054;-73
2024/01/29 15:17:03;;;;;;;82.55;30.88;;;;;;;;;;6241275;28;20057;-71
2024/01/29 15:20:08;;;;;;;85.55;34.03;;;;;;;;;;6241092;28;20057;-72
2024/01/29 15:23:08;;;;;;;93.47;33.22;;;;;;;;;;6243029;28;20658;-71
2024/01/29 15:26:11;;;;;;;85.10;32.33;;;;;;;;;;6240201;28;20053;-72
2024/01/29 15:29:12;;;;;;;87.35;32.40;;;;;;;;;;6243069;28;20053;-73
2024/01/29 15:32:13;;;;;;;89.88;35.88;;;;;;;;;;6238128;28;20415;-73
2024/01/29 15:35:14;;;;;;;110.35;37.65;;;;;;;;;;6242693;28;20049;-73
2024/01/29 15:38:20;;;;;;;103.88;36.80;;;;;;;;;;6248183;28;20091;-71
2024/01/29 15:41:21;;;;;;;108.60;41.85;;;;;;;;;;6242254;28;20053;-71
2024/01/29 15:44:22;;;;;;;114.78;40.97;;;;;;;;;;6246544;28;20056;-71
2024/01/29 15:47:23;;;;;;;115.65;42.83;;;;;;;;;;6247148;28;20488;-72
2024/01/29 15:50:23;;;;;;;124.90;42.80;;;;;;;;;;6240520;28;20068;-74
2024/01/29 15:53:24;;;;;;;116.68;41.30;;;;;;;;;;6244964;28;20587;-72
2024/01/29 15:56:25;;;;;;;120.50;41.90;;;;;;;;;;6245810;28;20755;-72
2024/01/29 15:59:25;;;;;;;77.93;30.15;;;;;;;;;;6242425;28;20049;-70
2024/01/29 16:02:26;;;;;;;104.80;38.90;;;;;;;;;;6241086;28;20787;-70
2024/01/29 16:05:27;;;;;;;96.90;37.22;;;;;;;;;;6242186;28;20071;-73
2024/01/29 16:08:28;;;;;;;102.75;39.05;;;;;;;;;;6247486;28;20053;-73
2024/01/29 16:11:29;;;;;;;117.60;42.03;;;;;;;;;;6239601;28;20053;-76
2024/01/29 16:14:30;;;;;;;95.93;36.60;;;;;;;;;;6250356;28;20419;-73
2024/01/29 16:17:30;;;;;;;92.90;34.53;;;;;;;;;;6244358;28;20041;-69
2024/01/29 16:20:31;;;;;;;78.50;29.42;;;;;;;;;;6249253;28;20223;-70
2024/01/29 16:23:32;;;;;;;100.40;37.35;;;;;;;;;;6239993;28;20053;-69
2024/01/29 16:26:32;;;;;;;99.22;36.55;;;;;;;;;;6240884;28;20063;-68
2024/01/29 16:29:34;;;;;;;117.07;44.83;;;;;;;;;;6246392;28;20100;-70
2024/01/29 16:32:36;;;;;;;118.75;45.38;;;;;;;;;;6225388;28;21315;-69
2024/01/29 16:35:38;;;;;;;115.15;42.83;;;;;;;;;;6249390;28;20049;-69
2024/01/29 16:38:39;;;;;;;;;;;;;;;;;;6243817;28;20144;-69
2024/01/29 16:41:39;;;;;;;126.28;44.70;;;;;;;;;;6241015;28;19924;-68
2024/01/29 16:44:42;;;;;;;141.32;52.65;;;;;;;;;;6230255;28;20037;-68
2024/01/29 16:47:44;;;;;;;114.25;42.67;;;;;;;;;;6246280;28;20075;-70
2024/01/29 16:50:46;;;;;;;127.05;47.90;;;;;;;;;;6239548;28;20504;-62
2024/01/29 16:53:47;;;;;;;148.50;57.83;;;;;;;;;;6244219;28;20463;-71
2024/01/29 16:56:48;;;;;;;159.65;62.53;;;;;;;;;;6238984;28;20050;-70
2024/01/29 16:59:48;;;;;;;142.75;53.20;;;;;;;;;;6242223;28;20057;-69
2024/01/29 17:02:49;;;;;;;148.95;57.10;;;;;;;;;;6241042;28;20067;-69
2024/01/29 17:05:50;;;;;;;148.48;57.53;;;;;;;;;;6243658;28;20111;-70
2024/01/29 17:08:51;;;;;;;142.32;55.97;;;;;;;;;;6243342;28;20048;-68
2024/01/29 17:11:51;;;;;;;148.93;58.75;;;;;;;;;;6242127;28;20053;-67
2024/01/29 17:14:52;;;;;;;168.63;67.75;;;;;;;;;;6242168;28;20045;-69
2024/01/29 17:17:53;;;;;;;139.65;55.30;;;;;;;;;;6240962;28;20049;-69
2024/01/29 17:20:53;;;;;;;153.85;61.47;;;;;;;;;;6227456;28;20073;-67
2024/01/29 17:23:54;;;;;;;143.75;55.78;;;;;;;;;;6240584;28;20053;-70
2024/01/29 17:26:55;;;;;;;136.45;53.22;;;;;;;;;;6241656;28;20188;-69